createdAt,value
2019-03-31T00:01:36.535Z,49.80
2019-03-31T00:07:39.276Z,49.70
2019-03-31T00:13:42.027Z,50.40
2019-03-31T00:19:44.790Z,49.70
2019-03-31T00:25:47.516Z,49.70
2019-03-31T00:31:50.273Z,49.80
2019-03-31T00:37:53.021Z,49.80
2019-03-31T00:43:55.766Z,49.80
2019-03-31T00:49:58.522Z,49.60
2019-03-31T00:56:01.270Z,49.70
2019-03-31T01:02:04.016Z,49.80
2019-03-31T01:08:06.754Z,49.70
2019-03-31T01:14:09.588Z,49.70
2019-03-31T01:20:12.401Z,49.70
2019-03-31T01:26:15.603Z,49.70
2019-03-31T01:32:18.332Z,49.70
2019-03-31T01:38:21.072Z,49.70
2019-03-31T01:44:23.821Z,49.60
2019-03-31T01:50:26.562Z,49.70
2019-03-31T01:56:29.290Z,49.50
2019-03-31T02:02:32.040Z,49.60
2019-03-31T02:08:34.844Z,49.50
2019-03-31T02:14:37.583Z,49.60
2019-03-31T02:20:40.623Z,49.50
2019-03-31T02:26:43.668Z,49.50
2019-03-31T02:32:46.448Z,49.50
2019-03-31T02:39:08.624Z,49.50
2019-03-31T02:45:11.710Z,49.40
2019-03-31T02:51:14.444Z,49.40
2019-03-31T02:57:19.124Z,49.40
2019-03-31T03:03:21.864Z,49.40
2019-03-31T03:09:25.273Z,49.40
2019-03-31T03:15:28.070Z,49.30
2019-03-31T03:21:30.861Z,49.20
2019-03-31T03:27:33.622Z,49.30
2019-03-31T03:33:37.889Z,49.40
2019-03-31T03:39:40.966Z,49.20
2019-03-31T03:45:43.829Z,49.20
2019-03-31T03:51:46.594Z,49.20
2019-03-31T03:57:49.709Z,49.30
2019-03-31T04:03:52.813Z,49.10
2019-03-31T04:09:55.612Z,49.20
2019-03-31T04:15:58.522Z,49.10
2019-03-31T04:22:01.270Z,49.20
2019-03-31T04:28:04.349Z,49.10
2019-03-31T04:34:07.093Z,49.10
2019-03-31T04:40:11.786Z,49.10
2019-03-31T04:46:14.316Z,49.10
2019-03-31T04:52:17.051Z,49.10
2019-03-31T04:58:20.103Z,49.00
2019-03-31T05:04:23.260Z,49.00
2019-03-31T05:10:26.244Z,49.10
2019-03-31T05:16:29.100Z,48.90
2019-03-31T05:22:31.844Z,49.00
2019-03-31T05:28:34.920Z,48.90
2019-03-31T05:34:37.643Z,49.00
2019-03-31T05:40:40.439Z,49.00
2019-03-31T05:46:43.165Z,49.00
2019-03-31T05:52:45.980Z,48.90
2019-03-31T05:58:48.723Z,49.00
2019-03-31T06:04:51.455Z,49.00
2019-03-31T06:10:54.184Z,49.10
2019-03-31T06:16:56.907Z,49.10
2019-03-31T06:22:59.641Z,49.00
2019-03-31T06:29:02.372Z,49.00
2019-03-31T06:35:05.435Z,48.80
2019-03-31T06:41:08.163Z,48.80
2019-03-31T06:47:10.892Z,48.90
2019-03-31T06:53:13.622Z,48.90
2019-03-31T06:59:16.358Z,48.90
2019-03-31T07:05:19.411Z,49.00
2019-03-31T07:11:22.152Z,49.00
2019-03-31T07:17:24.875Z,48.90
2019-03-31T07:23:27.607Z,49.00
2019-03-31T07:29:30.379Z,49.90
2019-03-31T07:35:33.175Z,49.10
2019-03-31T07:41:36.261Z,49.10
2019-03-31T07:47:38.985Z,49.20
2019-03-31T07:53:41.725Z,49.30
2019-03-31T07:59:44.484Z,49.20
2019-03-31T08:06:06.689Z,49.30
2019-03-31T08:12:09.446Z,49.40
2019-03-31T08:18:12.219Z,49.50
2019-03-31T08:24:14.988Z,49.50
2019-03-31T08:30:17.704Z,49.50
2019-03-31T08:36:20.462Z,49.50
2019-03-31T08:42:42.628Z,49.60
2019-03-31T08:48:45.352Z,49.60
2019-03-31T08:54:48.167Z,49.70
2019-03-31T09:00:50.975Z,49.60
2019-03-31T09:06:53.729Z,49.70
2019-03-31T09:12:56.457Z,49.90
2019-03-31T09:18:59.190Z,49.90
2019-03-31T09:25:01.917Z,49.90
2019-03-31T09:31:04.656Z,50.00
2019-03-31T09:37:07.385Z,50.00
2019-03-31T09:43:10.119Z,50.10
2019-03-31T09:49:12.848Z,50.10
2019-03-31T09:55:15.571Z,50.20
2019-03-31T10:01:18.312Z,50.10
2019-03-31T10:07:23.992Z,50.10
2019-03-31T10:13:26.830Z,50.20
2019-03-31T10:19:29.871Z,50.20
2019-03-31T10:25:32.621Z,50.20
2019-03-31T10:31:35.367Z,50.20
2019-03-31T10:37:38.095Z,50.20
2019-03-31T10:43:40.837Z,50.30
2019-03-31T10:49:43.550Z,50.30
2019-03-31T10:55:46.292Z,50.30
2019-03-31T11:01:49.019Z,50.30
2019-03-31T11:07:52.013Z,50.30
2019-03-31T11:13:54.758Z,51.20
2019-03-31T11:20:00.605Z,52.90
2019-03-31T11:26:02.020Z,52.20
2019-03-31T11:32:04.758Z,52.00
2019-03-31T11:38:07.488Z,52.10
2019-03-31T11:44:10.233Z,52.50
2019-03-31T11:50:13.255Z,52.60
2019-03-31T11:56:16.913Z,53.50
2019-03-31T12:02:27.022Z,53.40
2019-03-31T12:08:24.116Z,53.60
2019-03-31T12:14:26.868Z,52.90
2019-03-31T12:20:29.598Z,52.80
2019-03-31T12:26:32.337Z,52.20
2019-03-31T12:32:38.195Z,51.70
2019-03-31T12:38:39.625Z,51.60
2019-03-31T12:44:42.375Z,52.40
2019-03-31T12:50:45.106Z,52.30
2019-03-31T12:56:47.844Z,51.90
2019-03-31T13:02:50.657Z,51.50
2019-03-31T13:08:53.401Z,51.30
2019-03-31T13:14:56.146Z,51.20
2019-03-31T13:20:58.888Z,51.00
2019-03-31T13:27:01.630Z,50.80
2019-03-31T13:33:04.380Z,50.70
2019-03-31T13:39:07.125Z,50.60
2019-03-31T13:45:09.878Z,50.50
2019-03-31T13:51:12.624Z,50.50
2019-03-31T13:57:15.730Z,50.40
2019-03-31T14:03:19.402Z,50.30
2019-03-31T14:09:22.145Z,50.30
2019-03-31T14:15:25.235Z,50.30
2019-03-31T14:21:27.982Z,50.20
2019-03-31T14:27:30.741Z,50.20
2019-03-31T14:33:33.490Z,50.80
2019-03-31T14:39:36.228Z,50.10
2019-03-31T14:45:39.010Z,50.10
2019-03-31T14:51:42.073Z,50.00
2019-03-31T14:57:44.808Z,50.00
2019-03-31T15:03:47.903Z,50.00
2019-03-31T15:09:50.648Z,50.10
2019-03-31T15:15:53.389Z,50.00
2019-03-31T15:21:56.206Z,50.00
2019-03-31T15:27:58.941Z,50.00
2019-03-31T15:34:21.091Z,50.30
2019-03-31T15:40:23.890Z,50.90
2019-03-31T15:46:26.672Z,50.80
2019-03-31T15:52:29.691Z,50.90
2019-03-31T15:58:32.437Z,50.80
2019-03-31T16:04:35.235Z,51.00
2019-03-31T16:10:37.960Z,50.90
2019-03-31T16:16:41.012Z,50.80
2019-03-31T16:22:43.738Z,51.20
2019-03-31T16:28:46.472Z,50.70
2019-03-31T16:34:49.205Z,50.70
2019-03-31T16:40:51.925Z,50.80
2019-03-31T16:46:54.943Z,51.00
2019-03-31T16:52:57.677Z,52.10
2019-03-31T16:59:00.777Z,52.30
2019-03-31T17:05:04.853Z,52.30
2019-03-31T17:11:07.753Z,51.80
2019-03-31T17:17:10.513Z,51.50
2019-03-31T17:23:13.239Z,51.20
2019-03-31T17:29:15.973Z,51.00
2019-03-31T17:35:18.709Z,50.80
2019-03-31T17:41:21.703Z,50.90
2019-03-31T17:47:24.479Z,50.90
2019-03-31T17:53:27.224Z,51.10
2019-03-31T17:59:30.195Z,51.20
2019-03-31T18:05:32.920Z,51.40
2019-03-31T18:11:35.651Z,51.70
2019-03-31T18:17:38.382Z,51.50
2019-03-31T18:23:41.119Z,51.10
2019-03-31T18:29:43.849Z,51.00
2019-03-31T18:35:46.589Z,50.90
2019-03-31T18:41:49.319Z,50.80
2019-03-31T18:47:52.101Z,50.70
2019-03-31T18:53:54.827Z,50.60
2019-03-31T18:59:57.560Z,50.60
2019-03-31T19:06:00.301Z,50.50
2019-03-31T19:12:03.039Z,51.00
2019-03-31T19:18:05.817Z,50.50
2019-03-31T19:24:08.567Z,50.50
2019-03-31T19:30:11.300Z,50.60
2019-03-31T19:36:14.023Z,50.60
2019-03-31T19:42:16.752Z,50.70
2019-03-31T19:48:19.484Z,50.50
2019-03-31T19:54:22.232Z,50.50
2019-03-31T20:00:25.008Z,50.50
2019-03-31T20:06:27.739Z,50.50
2019-03-31T20:12:30.472Z,50.50
2019-03-31T20:18:33.204Z,50.50
2019-03-31T20:24:35.936Z,50.50
2019-03-31T20:30:38.739Z,51.30
2019-03-31T20:36:41.477Z,50.50
2019-03-31T20:42:44.279Z,50.60
2019-03-31T20:48:47.016Z,50.60
2019-03-31T20:54:49.747Z,50.50
2019-03-31T21:00:52.492Z,50.50
2019-03-31T21:06:55.228Z,50.50
2019-03-31T21:12:57.956Z,50.50
2019-03-31T21:19:00.683Z,50.40
2019-03-31T21:25:05.272Z,50.40
2019-03-31T21:31:08.003Z,50.40
2019-03-31T21:37:10.762Z,50.30
2019-03-31T21:43:13.548Z,50.30
2019-03-31T21:49:16.334Z,50.40
2019-03-31T21:55:19.403Z,50.50
2019-03-31T22:01:22.131Z,50.40
2019-03-31T22:07:24.857Z,50.30
2019-03-31T22:13:27.583Z,50.30
2019-03-31T22:19:30.629Z,50.30
2019-03-31T22:25:33.355Z,50.20
2019-03-31T22:31:36.179Z,50.30
2019-03-31T22:37:38.903Z,50.20
2019-03-31T22:43:41.637Z,50.20
2019-03-31T22:49:44.370Z,50.30
2019-03-31T22:55:47.097Z,50.20
2019-03-31T23:01:49.899Z,50.20
2019-03-31T23:07:52.658Z,50.10
2019-03-31T23:13:55.392Z,50.80
2019-03-31T23:19:58.124Z,50.10
2019-03-31T23:26:00.856Z,50.10
2019-03-31T23:32:03.592Z,50.10
2019-03-31T23:38:06.329Z,50.20
2019-03-31T23:44:09.054Z,49.90
2019-03-31T23:50:12.168Z,50.00
2019-03-31T23:56:14.899Z,50.00
